KDEH/DEH METAR and TAF weather

Enter ICAO airport designator
Station Type Date Time Source
KDEH METAR 2018/09/21 23:15 UTC NOAA

KDEH 212315Z AUTO 35009KT 10SM BKN041 BKN046 13/07 A3021 RMK AO2


Station Type Date Time Source
KDEH Decoded METAR 2018/09/21 23:15 UTC NOAA

Decorah, IA, United States (KDEH) 43-17N 091-44W
Sep 21, 2018 - 07:15 PM EDT / 2018.09.21 2315 UTC
Wind: from the N (350 degrees) at 10 MPH (9 KT):0
Visibility: 10 mile(s):0
Sky conditions: mostly cloudy
Temperature: 55 F (13 C)
Dew Point: 44 F (7 C)
Relative Humidity: 66%
Pressure (altimeter): 30.21 in. Hg (1023 hPa)
ob: KDEH 212315Z AUTO 35009KT 10SM BKN041 BKN046 13/07 A3021 RMK AO2
cycle: 23

Station Type Date Time Source
KDEH TAF UTC NOAA

Error!


Example: see airport list